This is the latest recevied weather packets stored in our database for station/object F4ETJ-1. If no packets are shown the sender has not sent any weather packets the latest 10 day(s).
| Time | Temp. | Humidity | Pressure | Rain* | Wind** | Luminosity | Snow |
|---|---|---|---|---|---|---|---|
| 1787573507 | 28.89° C | 59% | 1005.5 hPa | 0 mm | - | - | - |
| 1787573147 | 28.89° C | 58% | 1005.6 hPa | 0 mm | - | - | - |
| 1787572787 | 28.89° C | 59% | 1005.8 hPa | 0 mm | - | - | - |
| 1787572426 | 28.89° C | 58% | 1006 hPa | 0 mm | - | - | - |
| 1787572066 | 29.44° C | 57% | 1005.9 hPa | 0 mm | - | - | - |
| 1787571706 | 28.33° C | 62% | 1006 hPa | 0.25 mm | - | - | - |
| 1787571345 | 27.78° C | 68% | 1006 hPa | 0.76 mm | - | - | - |
| 1787570985 | 27.22° C | 69% | 1006.2 hPa | 0.76 mm | - | - | - |
| 1787570625 | 26.67° C | 70% | 1006.3 hPa | 0.76 mm | - | - | - |
| 1787570264 | 26.11° C | 69% | 1006.3 hPa | 0.76 mm | - | - | - |
| 1787569904 | 26.67° C | 68% | 1006.3 hPa | 0.76 mm | - | - | - |
| 1787569544 | 27.22° C | 69% | 1006.4 hPa | 0.76 mm | - | - | - |
| 1787569183 | 26.67° C | 74% | 1006.2 hPa | 0.76 mm | - | - | - |
| 1787568823 | 25.56° C | 73% | 1006.3 hPa | 0.76 mm | - | - | - |
| 1787568463 | 25° C | 74% | 1006.2 hPa | 0.76 mm | - | - | - |
| 1787568102 | 25° C | 69% | 1006.3 hPa | 0.51 mm | - | - | - |
| 1787567742 | 26.11° C | 64% | 1006.6 hPa | 0 mm | - | - | - |
| 1787567382 | 26.11° C | 63% | 1006.8 hPa | 0 mm | - | - | - |
| 1787567021 | 26.67° C | 60% | 1006.7 hPa | 0 mm | - | - | - |
| 1787566661 | 26.67° C | 60% | 1006.7 hPa | 0 mm | - | - | - |
| 1787566301 | 27.22° C | 58% | 1006.9 hPa | 0 mm | - | - | - |
| 1787565940 | 27.22° C | 60% | 1006.9 hPa | 0 mm | - | - | - |
| 1787565580 | 26.11° C | 61% | 1006.9 hPa | 0 mm | - | - | - |
| 1787565220 | 26.11° C | 61% | 1006.9 hPa | 0 mm | - | - | - |
| 1787564859 | 26.11° C | 61% | 1006.9 hPa | 0 mm | - | - | - |
* Rain latest hour (hover to see other rain measurements)
** Current wind speed in m/s (hover to see current wind gust speed)